Time;durP1;ratioP1;P1;durP2;ratioP2;P2;SDS_P1;SDS_P2;PMS_P1;PMS_P2;Temp;Humidity;BMP_temperature;BMP_pressure;BME280_temperature;BME280_humidity;BME280_pressure;Samples;Min_cycle;Max_cycle;Signal;HPM_P1;HPM_P2
2022/10/26 00:02:22;;;;;;;16.70;11.77;;;20.00;1.00;;;;;;5050857;28;20041;-66
2022/10/26 00:04:47;;;;;;;18.58;11.75;;;20.00;1.00;;;;;;5052436;28;20051;-66
2022/10/26 00:07:13;;;;;;;23.80;11.63;;;19.90;1.00;;;;;;5050547;28;20048;-66
2022/10/26 00:09:39;;;;;;;15.45;11.98;;;20.00;1.00;;;;;;5053376;28;20032;-66
2022/10/26 00:12:04;;;;;;;17.92;12.27;;;19.90;1.00;;;;;;5051382;28;20025;-66
2022/10/26 00:14:30;;;;;;;19.23;11.50;;;20.00;1.00;;;;;;5048649;28;20112;-66
2022/10/26 00:16:55;;;;;;;20.88;11.57;;;20.00;1.00;;;;;;5051698;28;20063;-66
2022/10/26 00:19:21;;;;;;;17.52;11.52;;;20.00;1.00;;;;;;5052818;28;20355;-66
2022/10/26 00:21:47;;;;;;;19.25;12.50;;;20.00;1.00;;;;;;5051044;28;20490;-66
2022/10/26 00:24:13;;;;;;;15.05;10.50;;;20.00;1.00;;;;;;5049732;28;20041;-66
2022/10/26 00:26:39;;;;;;;17.08;11.02;;;20.10;1.00;;;;;;5049114;28;20075;-66
2022/10/26 00:29:05;;;;;;;16.05;11.35;;;20.10;1.00;;;;;;5053868;28;20036;-66
2022/10/26 00:31:31;;;;;;;17.35;10.80;;;20.10;1.00;;;;;;5048489;28;20029;-66
2022/10/26 00:33:57;;;;;;;21.65;11.13;;;20.10;1.00;;;;;;5052349;28;20032;-66
2022/10/26 00:36:24;;;;;;;15.50;10.55;;;20.00;1.00;;;;;;5048408;28;20109;-66
2022/10/26 00:38:51;;;;;;;17.10;11.98;;;20.10;1.00;;;;;;5051329;28;20025;-66
2022/10/26 00:41:20;;;;;;;18.70;11.77;;;20.10;1.00;;;;;;5050635;28;20106;-66
2022/10/26 00:43:46;;;;;;;17.00;10.80;;;20.10;1.00;;;;;;5043476;28;20386;-66
2022/10/26 00:46:20;;;;;;;16.50;10.80;;;20.10;1.00;;;;;;5048247;28;20029;-66
2022/10/26 00:48:52;;;;;;;12.98;9.68;;;20.10;1.00;;;;;;5051182;28;20052;-66
2022/10/26 00:51:32;;;;;;;20.95;11.40;;;20.00;1.00;;;;;;5049834;28;20366;-66
2022/10/26 00:54:02;;;;;;;17.50;11.35;;;20.10;1.00;;;;;;5052028;28;20029;-66
2022/10/26 00:56:29;;;;;;;15.48;10.45;;;20.10;1.00;;;;;;5051827;28;20021;-66
2022/10/26 00:59:00;;;;;;;18.92;10.57;;;20.10;1.00;;;;;;5050381;28;20478;-66
2022/10/26 01:01:26;;;;;;;17.02;11.00;;;20.00;1.00;;;;;;5050896;28;20074;-66
2022/10/26 01:03:52;;;;;;;18.83;10.73;;;20.00;1.00;;;;;;5068369;28;20044;-66
2022/10/26 01:06:18;;;;;;;20.10;11.02;;;20.00;1.00;;;;;;5049545;28;20021;-66
2022/10/26 01:08:43;;;;;;;20.30;11.27;;;19.90;1.00;;;;;;5055416;28;20035;-66
2022/10/26 01:11:10;;;;;;;14.77;10.85;;;19.80;1.00;;;;;;5051081;28;20025;-66
2022/10/26 01:13:38;;;;;;;13.55;10.45;;;19.90;1.00;;;;;;5046254;28;20091;-66
2022/10/26 01:16:22;;;;;;;13.35;11.23;;;19.90;1.00;;;;;;5047948;28;20072;-66
2022/10/26 01:19:09;;;;;;;19.65;11.02;;;20.00;1.00;;;;;;5049297;28;20036;-66
2022/10/26 01:22:07;;;;;;;17.13;10.77;;;19.90;1.00;;;;;;5048970;28;20029;-66
2022/10/26 01:24:51;;;;;;;16.45;10.73;;;19.90;1.00;;;;;;5049187;28;20052;-67
2022/10/26 01:27:19;;;;;;;16.85;10.43;;;19.90;1.00;;;;;;5041635;28;20029;-66
2022/10/26 01:30:06;;;;;;;19.92;11.57;;;19.90;1.00;;;;;;5049725;28;20037;-66
2022/10/26 01:32:46;;;;;;;19.63;11.02;;;19.90;1.00;;;;;;5051455;28;20119;-66
2022/10/26 01:35:18;;;;;;;15.68;10.45;;;19.90;1.00;;;;;;5047497;28;20021;-66
2022/10/26 01:38:00;;;;;;;16.67;10.60;;;19.80;1.00;;;;;;5066130;28;20040;-66
2022/10/26 01:40:36;;;;;;;19.13;11.95;;;19.80;1.00;;;;;;5049111;28;20033;-66
2022/10/26 01:43:07;;;;;;;18.15;11.18;;;19.60;1.00;;;;;;5047565;28;20087;-66
2022/10/26 01:45:36;;;;;;;18.00;11.18;;;19.80;1.00;;;;;;5050937;28;20029;-66
2022/10/26 01:48:03;;;;;;;15.82;11.45;;;19.60;1.00;;;;;;5048751;28;20048;-66
2022/10/26 01:50:30;;;;;;;18.75;10.70;;;19.80;1.00;;;;;;5050726;28;20063;-66
2022/10/26 01:52:56;;;;;;;18.35;10.18;;;19.80;1.00;;;;;;5052192;28;20100;-66
2022/10/26 01:55:52;;;;;;;18.13;10.52;;;19.90;1.00;;;;;;5052586;28;20112;-66
2022/10/26 01:58:49;;;;;;;17.02;10.63;;;19.80;1.00;;;;;;5048191;28;20025;-66
2022/10/26 02:02:02;;;;;;;16.88;10.07;;;19.80;1.00;;;;;;5049678;28;20122;-66
2022/10/26 02:04:50;;;;;;;17.42;10.93;;;19.90;1.00;;;;;;5037446;28;20068;-66
2022/10/26 02:07:49;;;;;;;17.10;9.82;;;19.80;1.00;;;;;;5046295;28;20389;-66
2022/10/26 02:10:52;;;;;;;17.63;10.18;;;19.80;1.00;;;;;;5049611;28;20066;-66
2022/10/26 02:13:29;;;;;;;15.02;10.15;;;19.90;1.00;;;;;;5048928;28;20037;-66
2022/10/26 02:16:26;;;;;;;17.25;10.00;;;19.90;1.00;;;;;;5046881;28;20506;-66
2022/10/26 02:19:01;;;;;;;15.85;10.52;;;19.90;1.00;;;;;;5036488;28;20148;-66
2022/10/26 02:21:37;;;;;;;15.10;10.63;;;19.90;1.00;;;;;;5048803;28;20030;-66
2022/10/26 02:24:05;;;;;;;16.98;10.48;;;19.90;1.00;;;;;;5044756;28;20045;-66
2022/10/26 02:26:31;;;;;;;20.08;11.20;;;19.80;1.00;;;;;;5048324;28;20083;-66
2022/10/26 02:29:03;;;;;;;18.00;10.77;;;19.80;1.00;;;;;;5049039;28;20029;-66
2022/10/26 02:31:31;;;;;;;17.08;9.88;;;19.80;1.00;;;;;;5048177;28;20022;-66
2022/10/26 02:34:00;;;;;;;16.02;9.15;;;19.80;1.00;;;;;;5052496;28;20106;-66
2022/10/26 02:36:30;;;;;;;14.98;9.38;;;19.80;1.00;;;;;;5047664;28;20033;-66
2022/10/26 02:38:58;;;;;;;14.90;9.48;;;19.70;1.00;;;;;;5049869;28;20106;-66
2022/10/26 02:41:27;;;;;;;18.55;10.32;;;19.70;1.00;;;;;;5048067;28;20387;-66
2022/10/26 02:43:59;;;;;;;15.00;9.15;;;19.70;1.00;;;;;;5047858;28;20478;-66
2022/10/26 02:46:26;;;;;;;21.55;9.75;;;19.80;1.00;;;;;;5049265;28;20489;-66
2022/10/26 02:48:52;;;;;;;13.60;8.85;;;19.70;1.00;;;;;;5048939;28;20036;-66
2022/10/26 02:51:24;;;;;;;13.07;9.25;;;19.80;1.00;;;;;;5051768;28;20067;-66
2022/10/26 02:54:06;;;;;;;16.63;10.05;;;19.80;1.00;;;;;;5054953;28;20033;-66
2022/10/26 02:56:51;;;;;;;17.15;9.65;;;19.80;1.00;;;;;;5048941;28;20033;-66
2022/10/26 02:59:18;;;;;;;;;;;19.80;1.00;;;;;;5051644;28;20043;-66
2022/10/26 03:01:44;;;;;;;14.73;8.70;;;19.70;1.00;;;;;;5051465;28;19910;-66
2022/10/26 03:04:10;;;;;;;11.98;9.18;;;19.80;1.00;;;;;;5049397;28;20025;-66
2022/10/26 03:06:36;;;;;;;16.77;10.15;;;19.80;1.00;;;;;;5047092;28;20022;-66
2022/10/26 03:09:02;;;;;;;13.23;9.93;;;19.80;1.00;;;;;;5050410;28;20032;-66
2022/10/26 03:11:27;;;;;;;16.38;9.70;;;19.80;1.00;;;;;;5050226;28;20036;-66
2022/10/26 03:13:53;;;;;;;16.70;10.20;;;19.80;1.00;;;;;;5051006;28;20124;-66
2022/10/26 03:16:19;;;;;;;14.38;9.68;;;19.90;1.00;;;;;;5052012;28;20056;-66
2022/10/26 03:18:44;;;;;;;22.80;12.30;;;19.80;1.00;;;;;;5048368;28;20029;-66
2022/10/26 03:21:10;;;;;;;19.95;11.50;;;19.90;1.00;;;;;;5051730;28;20032;-66
2022/10/26 03:23:35;;;;;;;16.38;11.38;;;19.80;1.00;;;;;;5056050;28;20072;-66
2022/10/26 03:26:01;;;;;;;18.38;11.00;;;19.80;1.00;;;;;;5052506;28;20104;-66
2022/10/26 03:28:27;;;;;;;19.92;12.45;;;19.80;1.00;;;;;;5052591;28;20029;-66
2022/10/26 03:30:52;;;;;;;18.92;12.02;;;19.80;1.00;;;;;;5051223;28;20029;-66
2022/10/26 03:33:18;;;;;;;21.17;12.40;;;19.90;1.00;;;;;;5054837;28;20383;-66
2022/10/26 03:35:43;;;;;;;20.90;11.88;;;19.80;1.00;;;;;;5050069;28;20111;-66
2022/10/26 03:38:09;;;;;;;24.17;12.05;;;19.80;1.00;;;;;;5052183;28;20371;-66
2022/10/26 03:40:35;;;;;;;15.00;11.98;;;19.80;1.00;;;;;;5052023;28;20078;-66
2022/10/26 03:43:01;;;;;;;21.95;12.60;;;19.80;1.00;;;;;;5049391;28;20029;-66
2022/10/26 03:45:27;;;;;;;19.38;12.02;;;19.80;1.00;;;;;;5052816;28;20112;-66
2022/10/26 03:47:52;;;;;;;17.23;11.75;;;19.80;1.00;;;;;;5050522;28;20033;-66
2022/10/26 03:50:20;;;;;;;19.52;11.57;;;19.80;1.00;;;;;;5056410;28;20090;-66
2022/10/26 03:52:47;;;;;;;22.25;11.48;;;19.80;1.00;;;;;;5046415;28;20095;-66
2022/10/26 03:55:13;;;;;;;21.20;11.57;;;19.80;1.00;;;;;;5049172;28;20022;-66
2022/10/26 03:57:45;;;;;;;18.17;11.18;;;19.80;1.00;;;;;;5054298;28;20031;-66
2022/10/26 04:00:14;;;;;;;16.80;11.25;;;19.80;1.00;;;;;;5052613;28;20032;-66
2022/10/26 04:02:40;;;;;;;20.42;11.95;;;19.80;1.00;;;;;;5049819;28;20051;-66
2022/10/26 04:05:07;;;;;;;18.75;11.27;;;19.80;1.00;;;;;;5054676;28;20127;-66
2022/10/26 04:07:32;;;;;;;19.33;10.35;;;19.80;1.00;;;;;;5045694;28;20021;-66
2022/10/26 04:09:58;;;;;;;17.17;10.35;;;19.80;1.00;;;;;;5047796;28;20040;-66
2022/10/26 04:12:24;;;;;;;18.85;10.93;;;19.80;1.00;;;;;;5047442;28;20039;-66
2022/10/26 04:14:49;;;;;;;17.33;10.07;;;19.70;1.00;;;;;;5052992;28;20071;-66
2022/10/26 04:17:15;;;;;;;15.27;10.40;;;19.60;1.00;;;;;;5053827;28;20048;-66
2022/10/26 04:19:42;;;;;;;17.50;10.95;;;19.70;1.00;;;;;;5051849;28;20068;-66
2022/10/26 04:22:07;;;;;;;15.13;10.27;;;19.70;1.00;;;;;;5051007;28;20106;-66
2022/10/26 04:24:33;;;;;;;20.73;11.07;;;19.80;1.00;;;;;;5052873;28;20087;-66
2022/10/26 04:26:59;;;;;;;18.48;11.13;;;19.80;1.00;;;;;;5049991;28;20021;-66
2022/10/26 04:29:24;;;;;;;16.13;10.10;;;19.80;1.00;;;;;;5048196;28;20436;-66
2022/10/26 04:31:50;;;;;;;19.00;10.15;;;19.80;1.00;;;;;;5050346;28;20053;-66
2022/10/26 04:34:15;;;;;;;16.98;10.35;;;19.80;1.00;;;;;;5051280;28;20425;-66
2022/10/26 04:36:41;;;;;;;18.80;10.07;;;19.80;1.00;;;;;;5048111;28;20021;-66
2022/10/26 04:39:06;;;;;;;13.88;9.02;;;19.80;1.00;;;;;;5049133;28;20029;-66
2022/10/26 04:41:32;;;;;;;13.30;8.68;;;19.70;1.00;;;;;;5057061;28;20029;-67
2022/10/26 04:43:58;;;;;;;14.20;8.77;;;19.70;1.00;;;;;;5050204;28;20039;-66
2022/10/26 04:46:23;;;;;;;12.80;8.90;;;19.80;1.00;;;;;;5054211;28;20426;-66
2022/10/26 04:48:49;;;;;;;15.25;8.05;;;19.70;1.00;;;;;;5051635;28;20029;-66
2022/10/26 04:51:14;;;;;;;13.82;8.25;;;19.70;1.00;;;;;;5055506;28;20021;-66
2022/10/26 04:53:40;;;;;;;16.40;8.77;;;19.70;1.00;;;;;;5053170;28;20032;-66
2022/10/26 04:56:06;;;;;;;12.00;7.75;;;19.70;1.00;;;;;;5051273;28;20091;-66
2022/10/26 04:58:31;;;;;;;14.25;8.48;;;19.70;1.00;;;;;;5047661;28;20054;-66
2022/10/26 05:00:57;;;;;;;16.73;9.73;;;19.60;1.00;;;;;;5049187;28;20029;-67
2022/10/26 05:03:23;;;;;;;15.70;9.70;;;19.70;1.00;;;;;;5046164;28;20033;-67
2022/10/26 05:05:48;;;;;;;18.00;9.88;;;19.70;1.00;;;;;;5050852;28;20458;-67
2022/10/26 05:08:14;;;;;;;14.02;9.98;;;19.60;1.00;;;;;;5048461;28;20021;-67
2022/10/26 05:10:40;;;;;;;15.25;9.18;;;19.70;1.00;;;;;;5049909;28;20104;-67
2022/10/26 05:13:08;;;;;;;16.65;10.15;;;19.70;1.00;;;;;;5050389;28;20112;-67
2022/10/26 05:15:33;;;;;;;12.27;9.15;;;19.60;1.00;;;;;;5053506;28;20120;-67
2022/10/26 05:18:02;;;;;;;15.95;9.55;;;19.60;1.00;;;;;;5049135;28;20108;-67
2022/10/26 05:20:30;;;;;;;21.58;10.05;;;19.50;1.00;;;;;;5051478;28;20017;-67
2022/10/26 05:22:57;;;;;;;18.73;10.80;;;19.40;1.00;;;;;;5048118;28;20033;-67
2022/10/26 05:25:24;;;;;;;17.25;11.00;;;19.40;1.00;;;;;;5045903;28;20501;-67
2022/10/26 05:27:50;;;;;;;16.95;11.45;;;19.50;1.00;;;;;;5050914;28;20190;-67
2022/10/26 05:30:15;;;;;;;16.33;10.77;;;19.50;1.00;;;;;;5051101;28;20095;-67
2022/10/26 05:32:41;;;;;;;19.92;10.95;;;19.50;1.00;;;;;;5049712;28;20025;-67
2022/10/26 05:35:07;;;;;;;19.25;11.68;;;19.60;1.00;;;;;;5053577;28;20043;-67
2022/10/26 05:37:33;;;;;;;15.63;10.02;;;19.50;1.00;;;;;;5047998;28;20037;-67
2022/10/26 05:39:58;;;;;;;16.35;10.57;;;19.50;1.00;;;;;;5051471;28;20496;-67
2022/10/26 05:42:24;;;;;;;16.25;9.93;;;19.50;1.00;;;;;;5047215;28;20037;-65
2022/10/26 05:44:50;;;;;;;20.70;11.43;;;19.50;1.00;;;;;;5045424;28;20033;-65
2022/10/26 05:47:15;;;;;;;19.90;11.10;;;19.50;1.00;;;;;;5050485;28;20025;-66
2022/10/26 05:49:41;;;;;;;23.00;11.55;;;19.50;1.00;;;;;;5047269;28;20128;-65
2022/10/26 05:52:07;;;;;;;16.02;11.07;;;19.50;1.00;;;;;;5047987;28;20048;-66
2022/10/26 05:54:32;;;;;;;17.80;10.60;;;19.50;1.00;;;;;;5047396;28;20078;-65
2022/10/26 05:56:58;;;;;;;19.25;11.00;;;19.50;1.00;;;;;;5049568;28;20033;-65
2022/10/26 05:59:24;;;;;;;13.27;10.70;;;19.50;1.00;;;;;;5047696;28;20028;-65
2022/10/26 06:02:14;;;;;;;19.80;11.25;;;19.50;1.00;;;;;;5055361;28;20036;-65
2022/10/26 06:04:46;;;;;;;17.27;10.05;;;19.50;1.00;;;;;;5048137;28;20132;-66
2022/10/26 06:07:19;;;;;;;20.95;11.75;;;19.40;1.00;;;;;;5047360;28;20035;-66
2022/10/26 06:09:46;;;;;;;16.83;10.55;;;19.30;1.00;;;;;;5048885;28;20075;-66
2022/10/26 06:12:12;;;;;;;19.38;11.40;;;19.40;1.00;;;;;;5050391;28;20363;-66
2022/10/26 06:14:38;;;;;;;24.13;11.25;;;19.30;1.00;;;;;;5049614;28;20052;-66
2022/10/26 06:17:27;;;;;;;21.98;12.55;;;19.30;1.00;;;;;;5050719;28;20044;-66
2022/10/26 06:20:23;;;;;;;11.90;9.80;;;19.30;1.00;;;;;;5047829;28;20029;-65
2022/10/26 06:23:01;;;;;;;17.63;10.57;;;19.30;1.00;;;;;;5053440;28;20040;-66
2022/10/26 06:25:44;;;;;;;13.90;10.45;;;19.40;1.00;;;;;;5048728;28;20029;-66
2022/10/26 06:28:18;;;;;;;18.00;10.43;;;19.40;1.00;;;;;;5047693;28;20524;-66
2022/10/26 06:30:44;;;;;;;16.10;10.73;;;19.50;1.00;;;;;;5048583;28;20064;-66
2022/10/26 06:33:11;;;;;;;15.85;9.48;;;19.50;1.00;;;;;;5048149;28;20060;-65
2022/10/26 06:35:40;;;;;;;18.75;11.73;;;19.50;1.00;;;;;;5046957;28;20111;-66
2022/10/26 06:38:19;;;;;;;23.77;11.15;;;19.60;1.00;;;;;;5049192;28;20032;-66
2022/10/26 06:40:48;;;;;;;22.58;10.15;;;19.60;1.00;;;;;;5046653;28;20034;-65
2022/10/26 06:43:25;;;;;;;20.75;11.60;;;19.60;1.00;;;;;;5049641;28;20090;-66
2022/10/26 06:46:14;;;;;;;23.35;11.05;;;19.50;1.00;;;;;;5047914;28;20564;-65
2022/10/26 06:49:05;;;;;;;20.52;10.38;;;19.50;1.00;;;;;;5009770;28;20055;-56
2022/10/26 06:51:39;;;;;;;19.90;10.30;;;19.50;1.00;;;;;;5039869;28;20033;-59
2022/10/26 06:54:27;;;;;;;20.17;10.52;;;19.50;1.00;;;;;;5049647;28;20033;-55
2022/10/26 06:56:53;;;;;;;21.00;10.60;;;19.50;1.00;;;;;;5043834;28;20036;-59
2022/10/26 06:59:37;;;;;;;19.48;10.07;;;19.50;1.00;;;;;;5054412;28;20638;-57
2022/10/26 07:02:03;;;;;;;18.25;10.68;;;19.50;1.00;;;;;;5054518;28;20071;-59
2022/10/26 07:04:29;;;;;;;19.77;11.13;;;19.50;1.00;;;;;;5052252;28;20087;-60
2022/10/26 07:06:55;;;;;;;21.75;11.52;;;19.50;1.00;;;;;;5049860;28;20021;-58
2022/10/26 07:09:21;;;;;;;24.17;10.75;;;19.50;1.00;;;;;;5051036;28;20069;-52
2022/10/26 07:11:47;;;;;;;20.25;11.38;;;19.50;1.00;;;;;;5052933;28;20060;-59
2022/10/26 07:14:13;;;;;;;28.35;11.57;;;19.60;1.00;;;;;;5053034;28;20033;-59
2022/10/26 07:16:39;;;;;;;31.67;12.95;;;19.70;1.00;;;;;;5056908;28;20051;-61
2022/10/26 07:19:04;;;;;;;24.30;11.95;;;19.70;1.00;;;;;;5054523;28;20087;-62
2022/10/26 07:21:30;;;;;;;21.25;12.15;;;19.80;1.00;;;;;;5054955;28;20068;-62
2022/10/26 07:23:55;;;;;;;24.38;12.38;;;19.90;1.00;;;;;;5063921;28;20133;-61
2022/10/26 07:26:24;;;;;;;22.38;11.55;;;19.90;1.00;;;;;;5055422;28;20467;-60
2022/10/26 07:28:50;;;;;;;22.52;12.23;;;19.80;1.00;;;;;;5052641;28;20025;-67
2022/10/26 07:31:16;;;;;;;24.70;12.02;;;19.90;1.00;;;;;;5052740;28;20154;-62
2022/10/26 07:33:43;;;;;;;25.73;11.95;;;20.00;1.00;;;;;;5059943;28;20067;-63
2022/10/26 07:36:09;;;;;;;24.77;12.15;;;19.90;1.00;;;;;;5046716;28;20032;-64
2022/10/26 07:38:36;;;;;;;22.95;15.15;;;20.00;1.00;;;;;;5049880;28;20029;-63
2022/10/26 07:41:02;;;;;;;20.38;12.20;;;20.00;1.00;;;;;;5048836;28;20032;-59
2022/10/26 07:43:28;;;;;;;26.48;12.93;;;20.00;1.00;;;;;;5049957;28;20065;-60
2022/10/26 07:45:54;;;;;;;24.73;14.20;;;20.10;1.00;;;;;;5052972;28;20056;-61
2022/10/26 07:48:20;;;;;;;22.73;13.63;;;20.00;1.00;;;;;;5053206;28;20111;-54
2022/10/26 07:50:45;;;;;;;22.35;12.57;;;20.10;1.00;;;;;;5054732;28;20033;-52
2022/10/26 07:53:11;;;;;;;19.25;12.85;;;20.00;1.00;;;;;;5053311;28;20059;-59
2022/10/26 07:55:37;;;;;;;22.80;12.98;;;20.00;1.00;;;;;;5051594;28;20024;-65
2022/10/26 07:58:02;;;;;;;27.40;14.25;;;20.00;1.00;;;;;;5051902;28;20072;-78
2022/10/26 08:00:28;;;;;;;23.95;13.20;;;20.10;1.00;;;;;;5047799;28;20052;-74
2022/10/26 08:02:54;;;;;;;16.65;11.73;;;20.20;1.00;;;;;;5054115;28;20398;-71
2022/10/26 08:05:20;;;;;;;19.88;12.27;;;20.00;1.00;;;;;;5048854;28;20060;-67
2022/10/26 08:07:46;;;;;;;22.73;12.20;;;20.20;1.00;;;;;;5049469;28;20056;-61
2022/10/26 08:10:13;;;;;;;32.00;12.73;;;20.20;1.00;;;;;;5048012;28;20071;-73
2022/10/26 08:12:39;;;;;;;19.15;13.05;;;20.20;1.00;;;;;;5049310;28;20020;-72
2022/10/26 08:15:06;;;;;;;21.67;13.48;;;20.20;1.00;;;;;;5050495;28;20552;-77
2022/10/26 08:17:32;;;;;;;20.27;13.45;;;20.30;1.00;;;;;;5060809;28;20473;-75
2022/10/26 08:19:58;;;;;;;25.52;13.90;;;20.30;1.00;;;;;;5050382;28;20040;-71
2022/10/26 08:22:24;;;;;;;20.45;14.43;;;20.30;1.00;;;;;;5053180;28;20036;-68
2022/10/26 08:24:50;;;;;;;44.50;14.25;;;20.30;1.00;;;;;;5050381;28;20029;-57
2022/10/26 08:27:16;;;;;;;20.95;13.82;;;20.20;1.00;;;;;;5053398;28;20112;-52
2022/10/26 08:29:42;;;;;;;24.40;14.85;;;20.20;1.00;;;;;;5052922;28;20028;-54
2022/10/26 08:32:08;;;;;;;24.83;14.82;;;20.20;1.00;;;;;;5051914;28;20022;-68
2022/10/26 08:34:34;;;;;;;24.05;14.57;;;20.20;1.00;;;;;;5049336;28;20033;-69
2022/10/26 08:36:59;;;;;;;20.30;13.68;;;20.20;1.00;;;;;;5047221;28;20028;-72
2022/10/26 08:39:27;;;;;;;28.33;14.25;;;20.20;1.00;;;;;;5051238;28;20518;-63
2022/10/26 08:42:03;;;;;;;22.98;13.77;;;20.10;1.00;;;;;;5051179;28;20025;-63
2022/10/26 08:44:37;;;;;;;28.95;14.75;;;20.20;1.00;;;;;;5046074;28;20045;-72
2022/10/26 08:47:09;;;;;;;;;;;20.20;1.00;;;;;;5054004;28;20036;-74
2022/10/26 08:49:42;;;;;;;25.67;14.45;;;20.20;1.00;;;;;;5049109;28;19927;-60
2022/10/26 08:52:13;;;;;;;25.27;13.80;;;20.30;1.00;;;;;;5055721;28;20024;-73
2022/10/26 08:54:47;;;;;;;28.08;14.70;;;20.40;1.00;;;;;;5048001;28;20107;-71
2022/10/26 08:57:48;;;;;;;24.15;13.57;;;20.40;1.00;;;;;;5048032;28;20029;-68
2022/10/26 09:00:22;;;;;;;25.58;14.15;;;20.40;1.00;;;;;;5046117;28;20045;-63
2022/10/26 09:02:52;;;;;;;21.75;15.20;;;20.50;1.00;;;;;;5050848;28;20032;-69
2022/10/26 09:05:47;;;;;;;20.23;13.57;;;20.60;1.00;;;;;;5051994;28;20036;-65
2022/10/26 09:08:29;;;;;;;27.35;15.15;;;20.80;1.00;;;;;;5027302;28;20449;-65
2022/10/26 09:11:05;;;;;;;23.08;14.35;;;20.90;1.00;;;;;;5052455;28;20029;-65
2022/10/26 09:13:41;;;;;;;23.55;14.10;;;20.90;1.00;;;;;;5049349;28;20036;-63
2022/10/26 09:16:21;;;;;;;24.75;15.07;;;20.90;1.00;;;;;;5048570;28;20532;-59
2022/10/26 09:18:55;;;;;;;25.83;15.05;;;20.90;1.00;;;;;;5048227;28;20124;-58
2022/10/26 09:22:00;;;;;;;29.25;16.08;;;20.80;1.00;;;;;;5046621;28;20029;-59
2022/10/26 09:24:31;;;;;;;28.48;15.82;;;20.70;1.00;;;;;;5017406;28;20055;-69
2022/10/26 09:27:17;;;;;;;23.15;15.88;;;20.70;1.00;;;;;;5043266;28;20032;-59
2022/10/26 09:29:43;;;;;;;24.15;15.10;;;20.80;1.00;;;;;;5036557;28;20550;-61
2022/10/26 09:32:18;;;;;;;22.33;15.93;;;20.80;1.00;;;;;;5052236;28;20162;-61
2022/10/26 09:34:58;;;;;;;26.00;16.08;;;20.80;1.00;;;;;;5049476;28;20061;-58
2022/10/26 09:37:28;;;;;;;25.23;16.95;;;20.80;1.00;;;;;;5051037;28;20063;-55
2022/10/26 09:40:23;;;;;;;27.00;16.20;;;20.90;1.00;;;;;;5048731;28;20044;-60
2022/10/26 09:42:57;;;;;;;26.15;18.17;;;21.00;1.00;;;;;;5040176;28;20048;-63
2022/10/26 09:45:36;;;;;;;25.17;16.60;;;21.00;1.00;;;;;;5050315;28;20021;-60
2022/10/26 09:48:28;;;;;;;28.00;17.27;;;21.10;1.00;;;;;;5043069;28;20072;-60
2022/10/26 09:50:56;;;;;;;30.88;18.58;;;21.10;1.00;;;;;;5051999;28;20497;-60
2022/10/26 09:53:22;;;;;;;33.70;19.05;;;21.10;1.00;;;;;;5052658;28;20025;-61
2022/10/26 09:55:53;;;;;;;32.90;18.40;;;21.10;1.00;;;;;;5050030;28;20493;-62
2022/10/26 09:58:30;;;;;;;30.55;18.98;;;21.10;1.00;;;;;;5053229;28;20040;-65
2022/10/26 10:00:56;;;;;;;27.45;18.75;;;21.10;1.00;;;;;;5064672;28;20017;-74
2022/10/26 10:03:30;;;;;;;29.23;19.48;;;21.10;1.00;;;;;;5051664;28;20041;-64
2022/10/26 10:06:14;;;;;;;32.80;21.27;;;21.10;1.00;;;;;;5050843;28;20025;-63
2022/10/26 10:08:40;;;;;;;31.33;19.38;;;21.10;1.00;;;;;;5053437;28;20060;-61
2022/10/26 10:11:11;;;;;;;28.42;19.80;;;21.10;1.00;;;;;;5049853;28;20458;-73
2022/10/26 10:13:42;;;;;;;40.08;20.33;;;21.20;1.00;;;;;;5051828;28;20054;-64
2022/10/26 10:16:12;;;;;;;35.30;21.27;;;21.30;1.00;;;;;;5049184;28;20578;-57
2022/10/26 10:18:40;;;;;;;30.70;21.35;;;21.30;1.00;;;;;;5049386;28;20043;-54
2022/10/26 10:21:06;;;;;;;31.70;21.48;;;21.30;1.00;;;;;;5062153;28;20477;-62
2022/10/26 10:23:46;;;;;;;27.70;20.20;;;21.40;1.00;;;;;;5048430;28;20406;-57
2022/10/26 10:26:12;;;;;;;37.83;24.83;;;21.40;1.00;;;;;;5051325;28;20025;-57
2022/10/26 10:28:41;;;;;;;34.40;21.20;;;21.40;1.00;;;;;;5066851;28;20033;-52
2022/10/26 10:31:26;;;;;;;31.63;20.13;;;21.40;1.00;;;;;;5043073;28;20017;-56
2022/10/26 10:33:52;;;;;;;33.08;20.92;;;21.30;1.00;;;;;;5050089;28;20041;-53
2022/10/26 10:36:29;;;;;;;35.20;22.05;;;21.30;1.00;;;;;;5054297;28;20043;-58
2022/10/26 10:38:55;;;;;;;30.75;20.63;;;21.20;1.00;;;;;;5050965;28;20029;-62
2022/10/26 10:41:43;;;;;;;33.60;20.45;;;21.30;1.00;;;;;;5049031;28;20108;-71
2022/10/26 10:44:28;;;;;;;34.97;20.75;;;21.20;1.00;;;;;;5068265;28;20427;-71
2022/10/26 10:47:05;;;;;;;33.58;22.35;;;21.30;1.00;;;;;;5054125;28;20056;-67
2022/10/26 10:49:32;;;;;;;35.00;21.95;;;21.30;1.00;;;;;;5055276;28;20071;-63
2022/10/26 10:51:59;;;;;;;33.65;21.23;;;21.30;1.00;;;;;;5048897;28;20022;-60
2022/10/26 10:54:38;;;;;;;30.02;20.63;;;21.50;1.00;;;;;;5050794;28;20052;-69
2022/10/26 10:57:15;;;;;;;34.15;21.02;;;21.60;1.00;;;;;;5053860;28;20013;-65
2022/10/26 10:59:55;;;;;;;34.65;22.42;;;21.70;1.00;;;;;;5058220;28;20561;-61
2022/10/26 11:02:49;;;;;;;33.75;23.95;;;21.80;1.00;;;;;;5052287;28;20091;-62
2022/10/26 11:05:35;;;;;;;38.42;23.88;;;21.60;1.00;;;;;;5053974;28;20494;-63
2022/10/26 11:08:53;;;;;;;32.78;21.23;;;21.60;1.00;;;;;;5047985;28;20029;-65
2022/10/26 11:11:28;;;;;;;32.75;21.30;;;21.50;1.00;;;;;;5034154;28;20033;-63
2022/10/26 11:14:01;;;;;;;38.40;23.35;;;21.60;1.00;;;;;;5052416;28;20475;-71
2022/10/26 11:16:37;;;;;;;34.15;22.63;;;21.60;1.00;;;;;;5049929;28;20479;-64
2022/10/26 11:19:17;;;;;;;40.92;22.75;;;21.60;1.00;;;;;;5056438;28;20120;-64
2022/10/26 11:21:47;;;;;;;36.28;23.00;;;21.60;1.00;;;;;;5052113;28;20479;-63
2022/10/26 11:24:37;;;;;;;38.13;25.75;;;21.60;1.00;;;;;;5057157;28;20037;-63
2022/10/26 11:27:08;;;;;;;37.78;25.67;;;21.60;1.00;;;;;;5053644;28;20043;-63
2022/10/26 11:29:42;;;;;;;35.22;23.50;;;21.60;1.00;;;;;;5052289;28;20021;-62
2022/10/26 11:32:28;;;;;;;;;;;21.70;1.00;;;;;;5052249;28;20025;-62
2022/10/26 11:34:59;;;;;;;38.70;24.95;;;21.60;1.00;;;;;;5052307;28;20483;-64
2022/10/26 11:37:44;;;;;;;41.80;24.92;;;21.70;1.00;;;;;;5051756;28;20036;-59
2022/10/26 11:40:28;;;;;;;38.20;24.23;;;21.70;1.00;;;;;;5051445;28;20102;-66
2022/10/26 11:43:10;;;;;;;37.83;24.88;;;21.80;1.00;;;;;;5067210;28;20036;-59
2022/10/26 11:45:41;;;;;;;40.22;24.17;;;21.80;1.00;;;;;;5052037;28;20021;-73
2022/10/26 11:48:27;;;;;;;41.17;25.42;;;21.80;1.00;;;;;;5053290;28;20041;-63
2022/10/26 11:50:57;;;;;;;38.50;24.05;;;21.90;1.00;;;;;;5049284;28;20082;-59
2022/10/26 11:53:31;;;;;;;37.50;24.85;;;21.90;1.00;;;;;;5048546;28;20028;-63
2022/10/26 11:55:58;;;;;;;36.30;25.92;;;21.90;1.00;;;;;;5045340;28;20462;-63
2022/10/26 11:58:26;;;;;;;41.92;25.02;;;22.00;1.00;;;;;;5046361;28;20555;-63
2022/10/26 12:01:03;;;;;;;39.35;25.38;;;22.00;1.00;;;;;;5054903;28;20385;-63
2022/10/26 12:03:35;;;;;;;37.72;24.65;;;22.00;1.00;;;;;;5052536;28;20113;-62
2022/10/26 12:06:01;;;;;;;32.35;24.20;;;22.10;1.00;;;;;;5048172;28;20043;-61
2022/10/26 12:08:37;;;;;;;37.63;24.55;;;22.20;1.00;;;;;;5053391;28;20025;-62
2022/10/26 12:11:16;;;;;;;37.05;24.55;;;22.10;1.00;;;;;;5051806;28;20021;-62
2022/10/26 12:13:50;;;;;;;40.45;24.02;;;22.20;1.00;;;;;;5051351;28;20483;-61
2022/10/26 12:17:03;;;;;;;38.30;24.20;;;22.20;1.00;;;;;;5046910;28;20049;-61
2022/10/26 12:19:41;;;;;;;47.38;27.23;;;22.30;1.00;;;;;;5045147;28;20652;-62
2022/10/26 12:22:13;;;;;;;35.17;24.90;;;22.30;1.00;;;;;;5054243;28;20021;-62
2022/10/26 12:25:03;;;;;;;39.58;25.67;;;22.20;1.00;;;;;;5046607;28;20565;-61
2022/10/26 12:27:39;;;;;;;37.80;23.77;;;22.40;1.00;;;;;;5054308;28;20111;-58
2022/10/26 12:30:11;;;;;;;35.22;24.30;;;22.40;1.00;;;;;;5063469;28;20497;-59
2022/10/26 12:32:36;;;;;;;36.40;24.90;;;22.40;1.00;;;;;;5050782;28;20064;-67
2022/10/26 12:35:35;;;;;;;36.17;24.02;;;22.50;1.00;;;;;;5050909;28;20423;-68
2022/10/26 12:38:20;;;;;;;36.35;24.23;;;22.50;1.00;;;;;;5041990;28;20045;-65
2022/10/26 12:40:46;;;;;;;39.08;23.92;;;22.50;1.00;;;;;;5051724;28;20037;-65
2022/10/26 12:43:15;;;;;;;41.72;24.73;;;22.50;1.00;;;;;;5053431;28;20028;-66
2022/10/26 12:45:45;;;;;;;39.90;24.25;;;22.60;1.00;;;;;;5051806;28;20132;-66
2022/10/26 12:48:38;;;;;;;29.73;22.33;;;22.70;1.00;;;;;;5053542;28;20487;-68
2022/10/26 12:51:23;;;;;;;35.92;22.17;;;22.70;1.00;;;;;;5044448;28;20033;-68
2022/10/26 12:54:32;;;;;;;33.28;21.63;;;22.70;1.00;;;;;;5049778;28;20111;-60
2022/10/26 12:57:21;;;;;;;28.33;21.52;;;22.70;1.00;;;;;;5049142;28;20109;-64
2022/10/26 13:00:00;;;;;;;32.08;20.98;;;22.70;1.00;;;;;;5049077;28;20059;-60
2022/10/26 13:02:47;;;;;;;38.15;23.00;;;22.80;1.00;;;;;;5050308;28;20071;-60
2022/10/26 13:05:37;;;;;;;34.83;23.80;;;22.80;1.00;;;;;;5046684;28;20032;-55